sensor_id;sensor_type;location;lat;lon;timestamp;P1;durP1;ratioP1;P2;durP2;ratioP2
41057;SDS011;66768;48.884;2.258;2023-07-28T00:01:52;0.93;;;0.93;;
41057;SDS011;66768;48.884;2.258;2023-07-28T00:04:19;0.80;;;0.80;;
41057;SDS011;66768;48.884;2.258;2023-07-28T00:06:46;0.80;;;0.80;;
41057;SDS011;66768;48.884;2.258;2023-07-28T00:09:13;0.80;;;0.80;;
41057;SDS011;66768;48.884;2.258;2023-07-28T00:11:41;0.95;;;0.95;;
41057;SDS011;66768;48.884;2.258;2023-07-28T00:14:08;1.00;;;1.00;;
41057;SDS011;66768;48.884;2.258;2023-07-28T00:16:35;0.80;;;0.80;;
41057;SDS011;66768;48.884;2.258;2023-07-28T00:19:04;0.80;;;0.80;;
41057;SDS011;66768;48.884;2.258;2023-07-28T00:21:31;0.80;;;0.80;;
41057;SDS011;66768;48.884;2.258;2023-07-28T00:23:58;0.80;;;0.80;;
41057;SDS011;66768;48.884;2.258;2023-07-28T00:26:25;0.80;;;0.80;;
41057;SDS011;66768;48.884;2.258;2023-07-28T00:28:51;0.80;;;0.80;;
41057;SDS011;66768;48.884;2.258;2023-07-28T00:31:18;0.88;;;0.88;;
41057;SDS011;66768;48.884;2.258;2023-07-28T00:33:45;0.80;;;0.80;;
41057;SDS011;66768;48.884;2.258;2023-07-28T00:36:13;0.80;;;0.80;;
41057;SDS011;66768;48.884;2.258;2023-07-28T00:38:40;1.00;;;1.00;;
41057;SDS011;66768;48.884;2.258;2023-07-28T00:41:07;0.93;;;0.93;;
41057;SDS011;66768;48.884;2.258;2023-07-28T00:43:34;0.95;;;0.95;;
41057;SDS011;66768;48.884;2.258;2023-07-28T00:46:01;0.90;;;0.90;;
41057;SDS011;66768;48.884;2.258;2023-07-28T00:48:28;0.98;;;0.98;;
41057;SDS011;66768;48.884;2.258;2023-07-28T00:50:55;1.00;;;1.00;;
41057;SDS011;66768;48.884;2.258;2023-07-28T00:53:24;0.90;;;0.90;;
41057;SDS011;66768;48.884;2.258;2023-07-28T00:55:50;1.05;;;1.05;;
41057;SDS011;66768;48.884;2.258;2023-07-28T00:58:18;0.95;;;0.95;;
41057;SDS011;66768;48.884;2.258;2023-07-28T01:00:45;0.90;;;0.90;;
41057;SDS011;66768;48.884;2.258;2023-07-28T01:03:12;0.95;;;0.95;;
41057;SDS011;66768;48.884;2.258;2023-07-28T01:05:40;0.98;;;0.98;;
41057;SDS011;66768;48.884;2.258;2023-07-28T01:08:15;0.80;;;0.80;;
41057;SDS011;66768;48.884;2.258;2023-07-28T01:10:47;0.98;;;0.98;;
41057;SDS011;66768;48.884;2.258;2023-07-28T01:13:14;0.88;;;0.88;;
41057;SDS011;66768;48.884;2.258;2023-07-28T01:15:41;0.90;;;0.90;;
41057;SDS011;66768;48.884;2.258;2023-07-28T01:18:08;0.95;;;0.95;;
41057;SDS011;66768;48.884;2.258;2023-07-28T01:20:35;1.00;;;1.00;;
41057;SDS011;66768;48.884;2.258;2023-07-28T01:23:08;0.93;;;0.93;;
41057;SDS011;66768;48.884;2.258;2023-07-28T01:25:39;1.02;;;1.02;;
41057;SDS011;66768;48.884;2.258;2023-07-28T01:28:24;1.10;;;1.10;;
41057;SDS011;66768;48.884;2.258;2023-07-28T01:30:52;1.08;;;1.08;;
41057;SDS011;66768;48.884;2.258;2023-07-28T01:33:19;1.15;;;1.15;;
41057;SDS011;66768;48.884;2.258;2023-07-28T01:35:46;1.20;;;1.20;;
41057;SDS011;66768;48.884;2.258;2023-07-28T01:38:13;1.02;;;1.02;;
41057;SDS011;66768;48.884;2.258;2023-07-28T01:40:41;1.10;;;1.10;;
41057;SDS011;66768;48.884;2.258;2023-07-28T01:43:08;1.25;;;1.25;;
41057;SDS011;66768;48.884;2.258;2023-07-28T01:45:36;1.13;;;1.13;;
41057;SDS011;66768;48.884;2.258;2023-07-28T01:48:03;1.10;;;1.10;;
41057;SDS011;66768;48.884;2.258;2023-07-28T01:50:30;1.08;;;1.08;;
41057;SDS011;66768;48.884;2.258;2023-07-28T01:52:57;1.08;;;1.08;;
41057;SDS011;66768;48.884;2.258;2023-07-28T01:55:24;1.00;;;1.00;;
41057;SDS011;66768;48.884;2.258;2023-07-28T01:57:53;0.98;;;0.98;;
41057;SDS011;66768;48.884;2.258;2023-07-28T02:00:21;1.10;;;1.10;;
41057;SDS011;66768;48.884;2.258;2023-07-28T02:02:50;1.10;;;1.10;;
41057;SDS011;66768;48.884;2.258;2023-07-28T02:05:18;1.10;;;1.10;;
41057;SDS011;66768;48.884;2.258;2023-07-28T02:07:45;1.00;;;1.00;;
41057;SDS011;66768;48.884;2.258;2023-07-28T02:10:12;1.10;;;1.10;;
41057;SDS011;66768;48.884;2.258;2023-07-28T02:12:39;1.05;;;1.05;;
41057;SDS011;66768;48.884;2.258;2023-07-28T02:15:06;0.98;;;0.98;;
41057;SDS011;66768;48.884;2.258;2023-07-28T02:17:34;1.10;;;1.10;;
41057;SDS011;66768;48.884;2.258;2023-07-28T02:20:03;1.20;;;1.20;;
41057;SDS011;66768;48.884;2.258;2023-07-28T02:22:30;1.05;;;1.05;;
41057;SDS011;66768;48.884;2.258;2023-07-28T02:24:57;1.10;;;1.10;;
41057;SDS011;66768;48.884;2.258;2023-07-28T02:27:26;1.00;;;1.00;;
41057;SDS011;66768;48.884;2.258;2023-07-28T02:29:53;1.05;;;1.05;;
41057;SDS011;66768;48.884;2.258;2023-07-28T02:32:20;1.08;;;1.08;;
41057;SDS011;66768;48.884;2.258;2023-07-28T02:34:47;1.10;;;1.10;;
41057;SDS011;66768;48.884;2.258;2023-07-28T02:37:15;1.05;;;1.05;;
41057;SDS011;66768;48.884;2.258;2023-07-28T02:39:42;1.17;;;1.17;;
41057;SDS011;66768;48.884;2.258;2023-07-28T02:42:09;1.02;;;1.02;;
41057;SDS011;66768;48.884;2.258;2023-07-28T02:44:37;1.13;;;1.13;;
41057;SDS011;66768;48.884;2.258;2023-07-28T02:47:06;0.98;;;0.98;;
41057;SDS011;66768;48.884;2.258;2023-07-28T02:49:33;1.05;;;1.05;;
41057;SDS011;66768;48.884;2.258;2023-07-28T02:52:00;1.02;;;1.02;;
41057;SDS011;66768;48.884;2.258;2023-07-28T02:54:29;1.20;;;1.20;;
41057;SDS011;66768;48.884;2.258;2023-07-28T02:56:56;1.05;;;1.05;;
41057;SDS011;66768;48.884;2.258;2023-07-28T02:59:23;1.10;;;1.10;;
41057;SDS011;66768;48.884;2.258;2023-07-28T03:01:50;1.10;;;1.10;;
41057;SDS011;66768;48.884;2.258;2023-07-28T03:04:17;0.98;;;0.98;;
41057;SDS011;66768;48.884;2.258;2023-07-28T03:06:45;1.08;;;1.08;;
41057;SDS011;66768;48.884;2.258;2023-07-28T03:09:12;1.08;;;1.08;;
41057;SDS011;66768;48.884;2.258;2023-07-28T03:11:41;1.08;;;1.08;;
41057;SDS011;66768;48.884;2.258;2023-07-28T03:14:08;1.02;;;1.02;;
41057;SDS011;66768;48.884;2.258;2023-07-28T03:16:35;1.20;;;1.20;;
41057;SDS011;66768;48.884;2.258;2023-07-28T03:19:02;1.02;;;1.02;;
41057;SDS011;66768;48.884;2.258;2023-07-28T03:21:29;1.35;;;1.35;;
41057;SDS011;66768;48.884;2.258;2023-07-28T03:23:57;1.30;;;1.30;;
41057;SDS011;66768;48.884;2.258;2023-07-28T03:26:24;1.30;;;1.30;;
41057;SDS011;66768;48.884;2.258;2023-07-28T03:28:52;1.33;;;1.33;;
41057;SDS011;66768;48.884;2.258;2023-07-28T03:31:19;1.25;;;1.25;;
41057;SDS011;66768;48.884;2.258;2023-07-28T03:33:46;1.20;;;1.20;;
41057;SDS011;66768;48.884;2.258;2023-07-28T03:36:13;1.33;;;1.33;;
41057;SDS011;66768;48.884;2.258;2023-07-28T03:38:40;1.25;;;1.25;;
41057;SDS011;66768;48.884;2.258;2023-07-28T03:41:07;1.42;;;1.42;;
41057;SDS011;66768;48.884;2.258;2023-07-28T03:43:34;1.30;;;1.30;;
41057;SDS011;66768;48.884;2.258;2023-07-28T03:46:02;1.25;;;1.25;;
41057;SDS011;66768;48.884;2.258;2023-07-28T03:48:29;1.30;;;1.30;;
41057;SDS011;66768;48.884;2.258;2023-07-28T03:50:56;1.30;;;1.30;;
41057;SDS011;66768;48.884;2.258;2023-07-28T03:53:23;1.20;;;1.20;;
41057;SDS011;66768;48.884;2.258;2023-07-28T03:55:49;1.60;;;1.60;;
41057;SDS011;66768;48.884;2.258;2023-07-28T03:58:16;1.80;;;1.80;;
41057;SDS011;66768;48.884;2.258;2023-07-28T04:00:43;1.77;;;1.77;;
41057;SDS011;66768;48.884;2.258;2023-07-28T04:03:12;1.90;;;1.90;;
41057;SDS011;66768;48.884;2.258;2023-07-28T04:05:40;1.80;;;1.80;;
41057;SDS011;66768;48.884;2.258;2023-07-28T04:08:06;1.75;;;1.75;;
41057;SDS011;66768;48.884;2.258;2023-07-28T04:10:33;1.67;;;1.67;;
41057;SDS011;66768;48.884;2.258;2023-07-28T04:13:00;1.60;;;1.60;;
41057;SDS011;66768;48.884;2.258;2023-07-28T04:15:27;1.70;;;1.70;;
41057;SDS011;66768;48.884;2.258;2023-07-28T04:17:54;1.52;;;1.52;;
41057;SDS011;66768;48.884;2.258;2023-07-28T04:20:22;1.80;;;1.80;;
41057;SDS011;66768;48.884;2.258;2023-07-28T04:22:49;2.00;;;2.00;;
41057;SDS011;66768;48.884;2.258;2023-07-28T04:25:16;1.80;;;1.80;;
41057;SDS011;66768;48.884;2.258;2023-07-28T04:27:43;2.17;;;2.08;;
41057;SDS011;66768;48.884;2.258;2023-07-28T04:30:10;2.20;;;2.10;;
41057;SDS011;66768;48.884;2.258;2023-07-28T04:32:37;2.22;;;2.13;;
41057;SDS011;66768;48.884;2.258;2023-07-28T04:35:05;2.00;;;2.00;;
41057;SDS011;66768;48.884;2.258;2023-07-28T04:37:34;2.30;;;2.20;;
41057;SDS011;66768;48.884;2.258;2023-07-28T04:40:02;2.20;;;2.10;;
41057;SDS011;66768;48.884;2.258;2023-07-28T04:42:29;2.00;;;2.00;;
41057;SDS011;66768;48.884;2.258;2023-07-28T04:44:56;1.83;;;1.83;;
41057;SDS011;66768;48.884;2.258;2023-07-28T04:47:23;1.95;;;1.95;;
41057;SDS011;66768;48.884;2.258;2023-07-28T04:49:50;1.90;;;1.90;;
41057;SDS011;66768;48.884;2.258;2023-07-28T04:52:17;1.88;;;1.88;;
41057;SDS011;66768;48.884;2.258;2023-07-28T04:54:45;1.80;;;1.80;;
41057;SDS011;66768;48.884;2.258;2023-07-28T04:57:12;1.80;;;1.80;;
41057;SDS011;66768;48.884;2.258;2023-07-28T04:59:39;1.70;;;1.70;;
41057;SDS011;66768;48.884;2.258;2023-07-28T05:02:06;1.70;;;1.70;;
41057;SDS011;66768;48.884;2.258;2023-07-28T05:04:33;1.60;;;1.60;;
41057;SDS011;66768;48.884;2.258;2023-07-28T05:07:01;1.83;;;1.83;;
41057;SDS011;66768;48.884;2.258;2023-07-28T05:09:28;1.60;;;1.60;;
41057;SDS011;66768;48.884;2.258;2023-07-28T05:11:56;1.80;;;1.80;;
41057;SDS011;66768;48.884;2.258;2023-07-28T05:14:23;1.80;;;1.80;;
41057;SDS011;66768;48.884;2.258;2023-07-28T05:16:50;1.70;;;1.70;;
41057;SDS011;66768;48.884;2.258;2023-07-28T05:19:17;1.67;;;1.67;;
41057;SDS011;66768;48.884;2.258;2023-07-28T05:21:44;1.60;;;1.60;;
41057;SDS011;66768;48.884;2.258;2023-07-28T05:24:10;1.50;;;1.50;;
41057;SDS011;66768;48.884;2.258;2023-07-28T05:26:37;1.58;;;1.58;;
41057;SDS011;66768;48.884;2.258;2023-07-28T05:29:06;1.50;;;1.50;;
41057;SDS011;66768;48.884;2.258;2023-07-28T05:31:33;1.65;;;1.65;;
41057;SDS011;66768;48.884;2.258;2023-07-28T05:33:59;1.70;;;1.70;;
41057;SDS011;66768;48.884;2.258;2023-07-28T05:36:26;1.40;;;1.40;;
41057;SDS011;66768;48.884;2.258;2023-07-28T05:38:54;1.45;;;1.45;;
41057;SDS011;66768;48.884;2.258;2023-07-28T05:41:21;1.50;;;1.50;;
41057;SDS011;66768;48.884;2.258;2023-07-28T05:43:51;1.50;;;1.50;;
41057;SDS011;66768;48.884;2.258;2023-07-28T05:46:21;1.52;;;1.52;;
41057;SDS011;66768;48.884;2.258;2023-07-28T05:49:02;1.48;;;1.48;;
41057;SDS011;66768;48.884;2.258;2023-07-28T05:51:29;1.55;;;1.55;;
41057;SDS011;66768;48.884;2.258;2023-07-28T05:53:56;1.60;;;1.60;;
41057;SDS011;66768;48.884;2.258;2023-07-28T05:56:23;1.60;;;1.60;;
41057;SDS011;66768;48.884;2.258;2023-07-28T05:58:50;1.60;;;1.60;;
41057;SDS011;66768;48.884;2.258;2023-07-28T06:01:17;1.50;;;1.50;;
41057;SDS011;66768;48.884;2.258;2023-07-28T06:03:46;1.40;;;1.40;;
41057;SDS011;66768;48.884;2.258;2023-07-28T06:06:13;1.50;;;1.50;;
41057;SDS011;66768;48.884;2.258;2023-07-28T06:08:40;1.40;;;1.40;;
41057;SDS011;66768;48.884;2.258;2023-07-28T06:11:07;1.40;;;1.40;;
41057;SDS011;66768;48.884;2.258;2023-07-28T06:13:34;1.30;;;1.30;;
41057;SDS011;66768;48.884;2.258;2023-07-28T06:16:01;1.30;;;1.30;;
41057;SDS011;66768;48.884;2.258;2023-07-28T06:18:28;1.30;;;1.30;;
41057;SDS011;66768;48.884;2.258;2023-07-28T06:20:56;1.30;;;1.30;;
41057;SDS011;66768;48.884;2.258;2023-07-28T06:23:23;1.20;;;1.20;;
41057;SDS011;66768;48.884;2.258;2023-07-28T06:25:50;1.27;;;1.27;;
41057;SDS011;66768;48.884;2.258;2023-07-28T06:28:18;1.27;;;1.27;;
41057;SDS011;66768;48.884;2.258;2023-07-28T06:30:45;1.20;;;1.20;;
41057;SDS011;66768;48.884;2.258;2023-07-28T06:33:12;1.30;;;1.30;;
41057;SDS011;66768;48.884;2.258;2023-07-28T06:35:39;1.23;;;1.23;;
41057;SDS011;66768;48.884;2.258;2023-07-28T06:38:08;1.27;;;1.27;;
41057;SDS011;66768;48.884;2.258;2023-07-28T06:40:35;1.20;;;1.20;;
41057;SDS011;66768;48.884;2.258;2023-07-28T06:43:02;1.40;;;1.40;;
41057;SDS011;66768;48.884;2.258;2023-07-28T06:45:29;1.20;;;1.20;;
41057;SDS011;66768;48.884;2.258;2023-07-28T06:47:56;1.10;;;1.10;;
41057;SDS011;66768;48.884;2.258;2023-07-28T06:50:23;1.20;;;1.20;;
41057;SDS011;66768;48.884;2.258;2023-07-28T06:52:50;1.30;;;1.30;;
41057;SDS011;66768;48.884;2.258;2023-07-28T06:55:22;1.30;;;1.30;;
41057;SDS011;66768;48.884;2.258;2023-07-28T06:57:49;1.30;;;1.30;;
41057;SDS011;66768;48.884;2.258;2023-07-28T07:00:16;1.10;;;1.10;;
41057;SDS011;66768;48.884;2.258;2023-07-28T07:02:44;1.10;;;1.10;;
41057;SDS011;66768;48.884;2.258;2023-07-28T07:05:10;1.17;;;1.17;;
41057;SDS011;66768;48.884;2.258;2023-07-28T07:07:38;1.10;;;1.10;;
41057;SDS011;66768;48.884;2.258;2023-07-28T07:10:07;1.27;;;1.27;;
41057;SDS011;66768;48.884;2.258;2023-07-28T07:12:36;1.00;;;1.00;;
41057;SDS011;66768;48.884;2.258;2023-07-28T07:15:03;1.10;;;1.10;;
41057;SDS011;66768;48.884;2.258;2023-07-28T07:17:31;1.20;;;1.20;;
41057;SDS011;66768;48.884;2.258;2023-07-28T07:19:58;1.23;;;1.23;;
41057;SDS011;66768;48.884;2.258;2023-07-28T07:22:25;1.10;;;1.10;;
41057;SDS011;66768;48.884;2.258;2023-07-28T07:24:53;1.02;;;1.02;;
41057;SDS011;66768;48.884;2.258;2023-07-28T07:27:21;1.08;;;1.08;;
41057;SDS011;66768;48.884;2.258;2023-07-28T07:29:51;1.08;;;1.08;;
41057;SDS011;66768;48.884;2.258;2023-07-28T07:32:18;1.10;;;1.10;;
41057;SDS011;66768;48.884;2.258;2023-07-28T07:34:45;1.00;;;1.00;;
41057;SDS011;66768;48.884;2.258;2023-07-28T07:37:12;1.25;;;1.25;;
41057;SDS011;66768;48.884;2.258;2023-07-28T07:39:39;1.55;;;1.55;;
41057;SDS011;66768;48.884;2.258;2023-07-28T07:42:08;1.90;;;1.90;;
41057;SDS011;66768;48.884;2.258;2023-07-28T07:44:36;2.28;;;2.17;;
41057;SDS011;66768;48.884;2.258;2023-07-28T07:47:12;2.40;;;2.30;;
41057;SDS011;66768;48.884;2.258;2023-07-28T07:49:39;2.00;;;2.00;;
41057;SDS011;66768;48.884;2.258;2023-07-28T07:52:06;1.83;;;1.83;;
41057;SDS011;66768;48.884;2.258;2023-07-28T07:54:34;1.80;;;1.80;;
41057;SDS011;66768;48.884;2.258;2023-07-28T07:57:01;1.70;;;1.70;;
41057;SDS011;66768;48.884;2.258;2023-07-28T07:59:28;1.52;;;1.52;;
41057;SDS011;66768;48.884;2.258;2023-07-28T08:01:57;1.40;;;1.40;;
41057;SDS011;66768;48.884;2.258;2023-07-28T08:04:26;1.30;;;1.30;;
41057;SDS011;66768;48.884;2.258;2023-07-28T08:06:54;1.30;;;1.30;;
41057;SDS011;66768;48.884;2.258;2023-07-28T08:09:20;1.10;;;1.10;;
41057;SDS011;66768;48.884;2.258;2023-07-28T08:11:48;1.17;;;1.17;;
41057;SDS011;66768;48.884;2.258;2023-07-28T08:14:15;1.08;;;1.08;;
41057;SDS011;66768;48.884;2.258;2023-07-28T08:16:42;1.02;;;1.02;;
41057;SDS011;66768;48.884;2.258;2023-07-28T08:19:09;1.08;;;1.08;;
41057;SDS011;66768;48.884;2.258;2023-07-28T08:21:37;1.05;;;1.05;;
41057;SDS011;66768;48.884;2.258;2023-07-28T08:24:04;1.10;;;1.10;;
41057;SDS011;66768;48.884;2.258;2023-07-28T08:26:31;1.00;;;1.00;;
41057;SDS011;66768;48.884;2.258;2023-07-28T08:28:58;1.20;;;1.20;;
41057;SDS011;66768;48.884;2.258;2023-07-28T08:31:25;1.20;;;1.20;;
41057;SDS011;66768;48.884;2.258;2023-07-28T08:33:52;1.40;;;1.40;;
41057;SDS011;66768;48.884;2.258;2023-07-28T08:36:19;1.63;;;1.63;;
41057;SDS011;66768;48.884;2.258;2023-07-28T08:38:47;1.70;;;1.70;;
41057;SDS011;66768;48.884;2.258;2023-07-28T08:41:14;1.85;;;1.85;;
41057;SDS011;66768;48.884;2.258;2023-07-28T08:43:41;1.90;;;1.90;;
41057;SDS011;66768;48.884;2.258;2023-07-28T08:46:08;2.00;;;2.00;;
41057;SDS011;66768;48.884;2.258;2023-07-28T08:48:35;1.98;;;1.98;;
41057;SDS011;66768;48.884;2.258;2023-07-28T08:51:02;1.92;;;1.92;;
41057;SDS011;66768;48.884;2.258;2023-07-28T08:53:30;2.40;;;2.30;;
41057;SDS011;66768;48.884;2.258;2023-07-28T08:55:59;2.30;;;2.20;;
41057;SDS011;66768;48.884;2.258;2023-07-28T08:58:25;2.78;;;2.67;;
41057;SDS011;66768;48.884;2.258;2023-07-28T09:00:52;2.78;;;2.67;;
41057;SDS011;66768;48.884;2.258;2023-07-28T09:03:19;2.90;;;2.80;;
41057;SDS011;66768;48.884;2.258;2023-07-28T09:05:47;2.70;;;2.60;;
41057;SDS011;66768;48.884;2.258;2023-07-28T09:08:15;2.60;;;2.50;;
41057;SDS011;66768;48.884;2.258;2023-07-28T09:10:43;2.40;;;2.30;;
41057;SDS011;66768;48.884;2.258;2023-07-28T09:13:12;2.20;;;2.10;;
41057;SDS011;66768;48.884;2.258;2023-07-28T09:15:39;2.20;;;2.10;;
41057;SDS011;66768;48.884;2.258;2023-07-28T09:18:09;1.88;;;1.88;;
41057;SDS011;66768;48.884;2.258;2023-07-28T09:20:38;1.80;;;1.80;;
41057;SDS011;66768;48.884;2.258;2023-07-28T09:23:07;1.70;;;1.70;;
41057;SDS011;66768;48.884;2.258;2023-07-28T09:25:35;1.80;;;1.80;;
41057;SDS011;66768;48.884;2.258;2023-07-28T09:28:02;1.80;;;1.80;;
41057;SDS011;66768;48.884;2.258;2023-07-28T09:30:44;1.55;;;1.55;;
41057;SDS011;66768;48.884;2.258;2023-07-28T09:33:12;1.40;;;1.40;;
41057;SDS011;66768;48.884;2.258;2023-07-28T09:35:48;1.30;;;1.30;;
41057;SDS011;66768;48.884;2.258;2023-07-28T09:38:16;1.20;;;1.20;;
41057;SDS011;66768;48.884;2.258;2023-07-28T09:40:45;1.20;;;1.20;;
41057;SDS011;66768;48.884;2.258;2023-07-28T09:43:13;1.23;;;1.23;;
41057;SDS011;66768;48.884;2.258;2023-07-28T09:45:40;1.20;;;1.20;;
41057;SDS011;66768;48.884;2.258;2023-07-28T09:48:10;1.38;;;1.38;;
41057;SDS011;66768;48.884;2.258;2023-07-28T09:50:39;1.45;;;1.45;;
41057;SDS011;66768;48.884;2.258;2023-07-28T09:53:08;1.50;;;1.50;;
41057;SDS011;66768;48.884;2.258;2023-07-28T09:55:37;1.77;;;1.77;;
41057;SDS011;66768;48.884;2.258;2023-07-28T09:58:07;1.70;;;1.70;;
41057;SDS011;66768;48.884;2.258;2023-07-28T10:00:37;1.60;;;1.60;;
41057;SDS011;66768;48.884;2.258;2023-07-28T10:03:05;1.83;;;1.83;;
41057;SDS011;66768;48.884;2.258;2023-07-28T10:05:34;1.98;;;1.98;;
41057;SDS011;66768;48.884;2.258;2023-07-28T10:08:03;1.90;;;1.90;;
41057;SDS011;66768;48.884;2.258;2023-07-28T10:10:31;1.90;;;1.90;;
41057;SDS011;66768;48.884;2.258;2023-07-28T10:12:59;2.10;;;2.05;;
41057;SDS011;66768;48.884;2.258;2023-07-28T10:15:29;2.13;;;2.05;;
41057;SDS011;66768;48.884;2.258;2023-07-28T10:17:59;2.38;;;2.28;;
41057;SDS011;66768;48.884;2.258;2023-07-28T10:20:28;2.30;;;2.20;;
41057;SDS011;66768;48.884;2.258;2023-07-28T10:23:06;2.60;;;2.50;;
41057;SDS011;66768;48.884;2.258;2023-07-28T10:25:37;2.60;;;2.50;;
41057;SDS011;66768;48.884;2.258;2023-07-28T10:28:05;2.20;;;2.10;;
41057;SDS011;66768;48.884;2.258;2023-07-28T10:30:34;2.13;;;2.05;;
41057;SDS011;66768;48.884;2.258;2023-07-28T10:33:03;1.67;;;1.67;;
41057;SDS011;66768;48.884;2.258;2023-07-28T10:35:32;1.42;;;1.42;;
41057;SDS011;66768;48.884;2.258;2023-07-28T10:41:06;1.40;;;1.40;;
41057;SDS011;66768;48.884;2.258;2023-07-28T10:43:34;1.58;;;1.58;;
41057;SDS011;66768;48.884;2.258;2023-07-28T10:46:01;1.40;;;1.40;;
41057;SDS011;66768;48.884;2.258;2023-07-28T10:48:28;1.70;;;1.70;;
41057;SDS011;66768;48.884;2.258;2023-07-28T10:50:56;1.83;;;1.83;;
41057;SDS011;66768;48.884;2.258;2023-07-28T10:53:23;1.90;;;1.90;;
41057;SDS011;66768;48.884;2.258;2023-07-28T10:55:50;2.63;;;2.53;;
41057;SDS011;66768;48.884;2.258;2023-07-28T10:58:18;3.50;;;3.40;;
41057;SDS011;66768;48.884;2.258;2023-07-28T11:00:46;3.38;;;3.28;;
41057;SDS011;66768;48.884;2.258;2023-07-28T11:03:13;3.47;;;3.38;;
41057;SDS011;66768;48.884;2.258;2023-07-28T11:05:39;3.28;;;3.17;;
41057;SDS011;66768;48.884;2.258;2023-07-28T11:08:08;3.03;;;2.92;;
41057;SDS011;66768;48.884;2.258;2023-07-28T11:10:36;3.17;;;3.08;;
41057;SDS011;66768;48.884;2.258;2023-07-28T11:13:06;3.78;;;3.67;;
41057;SDS011;66768;48.884;2.258;2023-07-28T11:15:33;3.40;;;3.30;;
41057;SDS011;66768;48.884;2.258;2023-07-28T11:18:02;3.75;;;3.65;;
41057;SDS011;66768;48.884;2.258;2023-07-28T11:20:30;3.13;;;3.03;;
41057;SDS011;66768;48.884;2.258;2023-07-28T11:22:57;2.97;;;2.88;;
41057;SDS011;66768;48.884;2.258;2023-07-28T11:25:27;3.53;;;3.42;;
41057;SDS011;66768;48.884;2.258;2023-07-28T11:27:57;3.40;;;3.30;;
41057;SDS011;66768;48.884;2.258;2023-07-28T11:30:24;3.20;;;3.10;;
41057;SDS011;66768;48.884;2.258;2023-07-28T11:32:51;3.65;;;3.55;;
41057;SDS011;66768;48.884;2.258;2023-07-28T11:35:19;3.22;;;3.13;;
41057;SDS011;66768;48.884;2.258;2023-07-28T11:37:48;3.55;;;3.45;;
41057;SDS011;66768;48.884;2.258;2023-07-28T11:40:17;3.45;;;3.35;;
41057;SDS011;66768;48.884;2.258;2023-07-28T11:42:48;3.53;;;3.42;;
41057;SDS011;66768;48.884;2.258;2023-07-28T11:45:17;3.60;;;3.50;;
41057;SDS011;66768;48.884;2.258;2023-07-28T11:47:57;3.10;;;3.00;;
41057;SDS011;66768;48.884;2.258;2023-07-28T11:50:26;3.45;;;3.35;;
41057;SDS011;66768;48.884;2.258;2023-07-28T11:52:54;3.50;;;3.40;;
41057;SDS011;66768;48.884;2.258;2023-07-28T11:55:22;2.90;;;2.80;;
41057;SDS011;66768;48.884;2.258;2023-07-28T11:57:51;2.45;;;2.35;;
41057;SDS011;66768;48.884;2.258;2023-07-28T12:00:19;2.50;;;2.40;;
41057;SDS011;66768;48.884;2.258;2023-07-28T12:03:04;2.67;;;2.58;;
41057;SDS011;66768;48.884;2.258;2023-07-28T12:05:34;2.50;;;2.40;;
41057;SDS011;66768;48.884;2.258;2023-07-28T12:08:02;2.05;;;2.00;;
41057;SDS011;66768;48.884;2.258;2023-07-28T12:10:29;2.03;;;2.03;;
41057;SDS011;66768;48.884;2.258;2023-07-28T12:12:58;2.20;;;2.10;;
41057;SDS011;66768;48.884;2.258;2023-07-28T12:15:30;1.92;;;1.92;;
41057;SDS011;66768;48.884;2.258;2023-07-28T12:18:05;1.80;;;1.80;;
41057;SDS011;66768;48.884;2.258;2023-07-28T12:20:34;1.80;;;1.80;;
41057;SDS011;66768;48.884;2.258;2023-07-28T12:23:02;1.33;;;1.33;;
41057;SDS011;66768;48.884;2.258;2023-07-28T12:25:29;1.90;;;1.90;;
41057;SDS011;66768;48.884;2.258;2023-07-28T12:27:57;1.70;;;1.70;;
41057;SDS011;66768;48.884;2.258;2023-07-28T12:30:24;1.27;;;1.27;;
41057;SDS011;66768;48.884;2.258;2023-07-28T12:32:51;1.30;;;1.30;;
41057;SDS011;66768;48.884;2.258;2023-07-28T12:35:18;1.48;;;1.48;;
41057;SDS011;66768;48.884;2.258;2023-07-28T12:37:46;1.33;;;1.33;;
41057;SDS011;66768;48.884;2.258;2023-07-28T12:40:12;1.20;;;1.20;;
41057;SDS011;66768;48.884;2.258;2023-07-28T12:42:39;1.10;;;1.10;;
41057;SDS011;66768;48.884;2.258;2023-07-28T12:45:08;0.90;;;0.90;;
41057;SDS011;66768;48.884;2.258;2023-07-28T12:47:36;0.90;;;0.90;;
41057;SDS011;66768;48.884;2.258;2023-07-28T12:50:03;1.10;;;1.10;;
41057;SDS011;66768;48.884;2.258;2023-07-28T12:52:32;1.05;;;1.05;;
41057;SDS011;66768;48.884;2.258;2023-07-28T12:54:59;1.15;;;1.15;;
41057;SDS011;66768;48.884;2.258;2023-07-28T12:57:26;1.10;;;1.10;;
41057;SDS011;66768;48.884;2.258;2023-07-28T12:59:52;1.60;;;1.60;;
41057;SDS011;66768;48.884;2.258;2023-07-28T13:02:21;1.20;;;1.20;;
41057;SDS011;66768;48.884;2.258;2023-07-28T13:04:48;1.38;;;1.38;;
41057;SDS011;66768;48.884;2.258;2023-07-28T13:07:15;1.30;;;1.30;;
41057;SDS011;66768;48.884;2.258;2023-07-28T13:09:43;1.30;;;1.30;;
41057;SDS011;66768;48.884;2.258;2023-07-28T13:12:10;1.33;;;1.33;;
41057;SDS011;66768;48.884;2.258;2023-07-28T13:14:37;1.50;;;1.50;;
41057;SDS011;66768;48.884;2.258;2023-07-28T13:17:04;1.70;;;1.70;;
41057;SDS011;66768;48.884;2.258;2023-07-28T13:19:33;1.50;;;1.50;;
41057;SDS011;66768;48.884;2.258;2023-07-28T13:22:00;1.50;;;1.50;;
41057;SDS011;66768;48.884;2.258;2023-07-28T13:24:27;1.48;;;1.48;;
41057;SDS011;66768;48.884;2.258;2023-07-28T13:26:54;1.30;;;1.30;;
41057;SDS011;66768;48.884;2.258;2023-07-28T13:29:22;1.30;;;1.30;;
41057;SDS011;66768;48.884;2.258;2023-07-28T13:31:49;1.10;;;1.10;;
41057;SDS011;66768;48.884;2.258;2023-07-28T13:34:16;1.00;;;1.00;;
41057;SDS011;66768;48.884;2.258;2023-07-28T13:36:44;1.08;;;1.08;;
41057;SDS011;66768;48.884;2.258;2023-07-28T13:39:11;1.15;;;1.15;;
41057;SDS011;66768;48.884;2.258;2023-07-28T13:41:38;1.00;;;1.00;;
41057;SDS011;66768;48.884;2.258;2023-07-28T13:44:05;1.17;;;1.17;;
41057;SDS011;66768;48.884;2.258;2023-07-28T13:46:32;1.00;;;1.00;;
41057;SDS011;66768;48.884;2.258;2023-07-28T13:48:58;1.30;;;1.30;;
41057;SDS011;66768;48.884;2.258;2023-07-28T13:51:26;1.20;;;1.20;;
41057;SDS011;66768;48.884;2.258;2023-07-28T13:53:54;1.40;;;1.40;;
41057;SDS011;66768;48.884;2.258;2023-07-28T13:56:21;1.30;;;1.30;;
41057;SDS011;66768;48.884;2.258;2023-07-28T13:58:48;1.20;;;1.20;;
41057;SDS011;66768;48.884;2.258;2023-07-28T14:01:15;1.20;;;1.20;;
41057;SDS011;66768;48.884;2.258;2023-07-28T14:03:42;0.95;;;0.95;;
41057;SDS011;66768;48.884;2.258;2023-07-28T14:06:09;1.20;;;1.20;;
41057;SDS011;66768;48.884;2.258;2023-07-28T14:08:36;1.10;;;1.10;;
41057;SDS011;66768;48.884;2.258;2023-07-28T14:11:04;1.10;;;1.10;;
41057;SDS011;66768;48.884;2.258;2023-07-28T14:13:31;1.00;;;1.00;;
41057;SDS011;66768;48.884;2.258;2023-07-28T14:15:58;1.30;;;1.30;;
41057;SDS011;66768;48.884;2.258;2023-07-28T14:18:25;1.00;;;1.00;;
41057;SDS011;66768;48.884;2.258;2023-07-28T14:20:52;1.33;;;1.33;;
41057;SDS011;66768;48.884;2.258;2023-07-28T14:23:20;0.93;;;0.93;;
41057;SDS011;66768;48.884;2.258;2023-07-28T14:25:51;1.00;;;1.00;;
41057;SDS011;66768;48.884;2.258;2023-07-28T14:28:20;1.25;;;1.25;;
41057;SDS011;66768;48.884;2.258;2023-07-28T14:30:48;1.40;;;1.40;;
41057;SDS011;66768;48.884;2.258;2023-07-28T14:33:18;1.77;;;1.77;;
41057;SDS011;66768;48.884;2.258;2023-07-28T14:35:45;2.20;;;2.10;;
41057;SDS011;66768;48.884;2.258;2023-07-28T14:38:13;3.00;;;2.90;;
41057;SDS011;66768;48.884;2.258;2023-07-28T14:40:41;2.63;;;2.53;;
41057;SDS011;66768;48.884;2.258;2023-07-28T14:43:11;3.03;;;2.92;;
41057;SDS011;66768;48.884;2.258;2023-07-28T14:45:40;2.92;;;2.83;;
41057;SDS011;66768;48.884;2.258;2023-07-28T14:48:07;1.83;;;1.83;;
41057;SDS011;66768;48.884;2.258;2023-07-28T14:50:33;1.48;;;1.48;;
41057;SDS011;66768;48.884;2.258;2023-07-28T14:53:00;1.70;;;1.70;;
41057;SDS011;66768;48.884;2.258;2023-07-28T14:55:27;2.38;;;2.28;;